createdAt,value
2018-01-28T00:00:48.293Z,0.00
2018-01-28T00:02:41.256Z,0.00
2018-01-28T00:03:41.196Z,0.00
2018-01-28T00:05:34.184Z,0.00
2018-01-28T00:06:34.202Z,0.00
2018-01-28T00:08:27.336Z,0.00
2018-01-28T00:09:27.229Z,0.00
2018-01-28T00:11:20.207Z,0.00
2018-01-28T00:12:20.108Z,0.00
2018-01-28T00:14:13.063Z,0.00
2018-01-28T00:15:13.052Z,0.00
2018-01-28T00:17:06.199Z,0.00
2018-01-28T00:18:06.096Z,0.00
2018-01-28T00:19:59.046Z,0.00
2018-01-28T00:20:59.007Z,0.00
2018-01-28T00:22:51.956Z,0.00
2018-01-28T00:23:51.894Z,0.00
2018-01-28T00:25:45.060Z,0.00
2018-01-28T00:26:44.995Z,0.00
2018-01-28T00:28:37.952Z,0.00
2018-01-28T00:29:37.906Z,0.00
2018-01-28T00:31:30.857Z,0.00
2018-01-28T00:32:30.811Z,0.00
2018-01-28T00:34:23.630Z,0.00
2018-01-28T00:35:23.595Z,0.00
2018-01-28T00:37:16.606Z,0.00
2018-01-28T00:38:16.506Z,0.00
2018-01-28T00:40:09.485Z,0.00
2018-01-28T00:41:09.432Z,0.00
2018-01-28T00:43:02.376Z,0.00
2018-01-28T00:44:02.322Z,0.00
2018-01-28T00:45:55.457Z,0.00
2018-01-28T00:46:55.375Z,0.00
2018-01-28T00:48:48.346Z,0.00
2018-01-28T00:49:48.266Z,0.00
2018-01-28T00:51:41.220Z,0.00
2018-01-28T00:52:41.181Z,0.00
2018-01-28T00:54:34.316Z,0.00
2018-01-28T00:55:34.250Z,0.00
2018-01-28T00:57:27.217Z,0.00
2018-01-28T00:58:27.165Z,0.00
2018-01-28T01:00:20.096Z,0.00
2018-01-28T01:01:20.048Z,0.00
2018-01-28T01:03:12.876Z,0.00
2018-01-28T01:04:12.821Z,0.00
2018-01-28T01:06:05.817Z,0.00
2018-01-28T01:07:05.720Z,0.00
2018-01-28T01:08:58.672Z,0.00
2018-01-28T01:09:58.633Z,0.00
2018-01-28T01:11:51.457Z,0.00
2018-01-28T01:12:51.480Z,0.00
2018-01-28T01:14:44.665Z,0.00
2018-01-28T01:15:44.482Z,0.00
2018-01-28T01:17:37.427Z,0.00
2018-01-28T01:18:37.392Z,0.00
2018-01-28T01:20:30.345Z,0.00
2018-01-28T01:21:30.285Z,0.00
2018-01-28T01:23:23.482Z,0.00
2018-01-28T01:24:23.367Z,0.00
2018-01-28T01:26:16.312Z,0.00
2018-01-28T01:27:16.271Z,0.00
2018-01-28T01:29:09.205Z,0.00
2018-01-28T01:30:09.177Z,0.00
2018-01-28T01:32:02.337Z,0.00
2018-01-28T01:33:02.261Z,0.00
2018-01-28T01:34:55.208Z,0.00
2018-01-28T01:35:55.160Z,0.00
2018-01-28T01:37:48.996Z,0.00
2018-01-28T01:38:48.936Z,0.00
2018-01-28T01:40:42.177Z,0.00
2018-01-28T01:41:41.983Z,0.00
2018-01-28T01:43:34.956Z,0.00
2018-01-28T01:44:34.905Z,0.00
2018-01-28T01:46:27.860Z,0.00
2018-01-28T01:47:27.831Z,0.00
2018-01-28T01:49:21.002Z,0.00
2018-01-28T01:50:20.871Z,0.00
2018-01-28T01:52:13.684Z,0.00
2018-01-28T01:53:13.627Z,0.00
2018-01-28T01:55:06.606Z,0.00
2018-01-28T01:56:06.551Z,0.00
2018-01-28T01:57:59.491Z,0.00
2018-01-28T01:58:59.450Z,0.00
2018-01-28T02:00:52.532Z,0.00
2018-01-28T02:01:52.437Z,0.00
2018-01-28T02:03:45.396Z,0.00
2018-01-28T02:04:45.347Z,0.00
2018-01-28T02:06:38.286Z,0.00
2018-01-28T02:07:38.247Z,0.00
2018-01-28T02:09:31.176Z,0.00
2018-01-28T02:10:31.101Z,0.00
2018-01-28T02:12:24.047Z,0.00
2018-01-28T02:13:24.010Z,0.00
2018-01-28T02:15:16.965Z,0.00
2018-01-28T02:16:16.921Z,0.00
2018-01-28T02:18:09.910Z,0.00
2018-01-28T02:19:09.810Z,0.00
2018-01-28T02:21:02.996Z,0.00
2018-01-28T02:22:02.631Z,0.00
2018-01-28T02:23:55.598Z,0.00
2018-01-28T02:24:55.553Z,0.00
2018-01-28T02:26:48.461Z,0.00
2018-01-28T02:27:48.425Z,0.00
2018-01-28T02:29:41.262Z,0.00
2018-01-28T02:30:41.192Z,0.00
2018-01-28T02:32:34.003Z,0.00
2018-01-28T02:33:33.976Z,0.00
2018-01-28T02:35:26.947Z,0.00
2018-01-28T02:36:26.731Z,0.00
2018-01-28T02:38:19.702Z,0.00
2018-01-28T02:39:19.653Z,0.00
2018-01-28T02:41:12.599Z,0.00
2018-01-28T02:42:12.545Z,0.00
2018-01-28T02:44:05.882Z,0.00
2018-01-28T02:45:05.648Z,0.00
2018-01-28T02:46:58.485Z,0.00
2018-01-28T02:47:58.401Z,0.00
2018-01-28T02:49:51.341Z,0.00
2018-01-28T02:50:51.300Z,0.00
2018-01-28T02:52:44.278Z,0.00
2018-01-28T02:53:44.225Z,0.00
2018-01-28T02:55:37.247Z,0.00
2018-01-28T02:56:37.195Z,0.00
2018-01-28T02:58:30.211Z,0.00
2018-01-28T02:59:30.163Z,0.00
2018-01-28T03:01:23.112Z,0.00
2018-01-28T03:02:23.055Z,0.00
2018-01-28T03:04:15.891Z,0.00
2018-01-28T03:05:15.850Z,0.00
2018-01-28T03:07:08.797Z,0.00
2018-01-28T03:08:08.718Z,0.00
2018-01-28T03:10:01.682Z,0.00
2018-01-28T03:11:01.627Z,0.00
2018-01-28T03:12:54.441Z,0.00
2018-01-28T03:13:54.381Z,0.00
2018-01-28T03:15:47.656Z,0.00
2018-01-28T03:16:47.518Z,0.00
2018-01-28T03:18:40.340Z,0.00
2018-01-28T03:19:40.292Z,0.00
2018-01-28T03:21:33.247Z,0.00
2018-01-28T03:22:33.335Z,0.00
2018-01-28T03:24:26.157Z,0.00
2018-01-28T03:25:26.103Z,0.00
2018-01-28T03:27:19.148Z,0.00
2018-01-28T03:28:18.893Z,0.00
2018-01-28T03:30:11.708Z,0.00
2018-01-28T03:31:11.676Z,0.00
2018-01-28T03:33:04.642Z,0.00
2018-01-28T03:34:04.577Z,0.00
2018-01-28T03:35:57.602Z,0.00
2018-01-28T03:36:57.521Z,0.00
2018-01-28T03:38:50.331Z,0.00
2018-01-28T03:39:50.301Z,0.00
2018-01-28T03:41:43.278Z,0.00
2018-01-28T03:42:43.185Z,0.00
2018-01-28T03:44:36.170Z,0.00
2018-01-28T03:45:36.111Z,0.00
2018-01-28T03:47:29.062Z,0.00
2018-01-28T03:48:29.010Z,0.00
2018-01-28T03:50:22.105Z,0.00
2018-01-28T03:51:21.981Z,0.00
2018-01-28T03:53:14.915Z,0.00
2018-01-28T03:54:14.878Z,0.00
2018-01-28T03:56:07.833Z,0.00
2018-01-28T03:57:07.798Z,0.00
2018-01-28T03:59:00.922Z,0.00
2018-01-28T04:00:00.871Z,0.00
2018-01-28T04:01:53.692Z,0.00
2018-01-28T04:02:53.637Z,0.00
2018-01-28T04:04:46.722Z,0.00
2018-01-28T04:05:46.668Z,0.00
2018-01-28T04:07:39.606Z,0.00
2018-01-28T04:08:39.561Z,0.00
2018-01-28T04:10:32.523Z,0.00
2018-01-28T04:11:32.452Z,0.00
2018-01-28T04:13:25.409Z,0.00
2018-01-28T04:14:25.421Z,0.00
2018-01-28T04:16:18.664Z,0.00
2018-01-28T04:17:18.456Z,0.00
2018-01-28T04:19:11.433Z,0.00
2018-01-28T04:20:11.377Z,0.00
2018-01-28T04:22:04.198Z,0.00
2018-01-28T04:23:04.134Z,0.00
2018-01-28T04:24:57.067Z,0.00
2018-01-28T04:25:57.030Z,0.00
2018-01-28T04:27:49.857Z,0.00
2018-01-28T04:28:49.810Z,0.00
2018-01-28T04:30:42.767Z,0.00
2018-01-28T04:31:42.739Z,0.00
2018-01-28T04:33:35.686Z,0.00
2018-01-28T04:34:35.631Z,0.00
2018-01-28T04:36:28.609Z,0.00
2018-01-28T04:37:28.542Z,0.00
2018-01-28T04:39:21.366Z,0.00
2018-01-28T04:40:21.313Z,0.00
2018-01-28T04:42:14.123Z,0.00
2018-01-28T04:43:14.086Z,0.00
2018-01-28T04:45:07.026Z,0.00
2018-01-28T04:46:06.978Z,0.00
2018-01-28T04:47:59.921Z,0.00
2018-01-28T04:48:59.873Z,0.00
2018-01-28T04:50:53.138Z,0.00
2018-01-28T04:51:52.963Z,0.00
2018-01-28T04:53:45.937Z,0.00
2018-01-28T04:54:45.871Z,0.00
2018-01-28T04:56:38.801Z,0.00
2018-01-28T04:57:38.771Z,0.00
2018-01-28T04:59:31.883Z,0.00
2018-01-28T05:00:31.821Z,0.00
2018-01-28T05:02:24.767Z,0.00
2018-01-28T05:03:24.742Z,0.00
2018-01-28T05:05:17.686Z,0.00
2018-01-28T05:06:17.648Z,0.00
2018-01-28T05:08:10.793Z,0.00
2018-01-28T05:09:10.739Z,0.00
2018-01-28T05:11:03.751Z,0.00
2018-01-28T05:12:03.653Z,0.00
2018-01-28T05:13:56.607Z,0.00
2018-01-28T05:14:56.557Z,0.00
2018-01-28T05:16:49.408Z,0.00
2018-01-28T05:17:49.363Z,0.00
2018-01-28T05:19:42.343Z,0.00
2018-01-28T05:20:42.293Z,0.00
2018-01-28T05:22:35.243Z,0.00
2018-01-28T05:23:35.216Z,0.00
2018-01-28T05:25:28.145Z,0.00
2018-01-28T05:26:28.112Z,0.00
2018-01-28T05:28:20.917Z,0.00
2018-01-28T05:29:20.863Z,0.00
2018-01-28T05:31:13.738Z,0.00
2018-01-28T05:32:13.630Z,0.00
2018-01-28T05:34:06.603Z,0.00
2018-01-28T05:35:06.558Z,0.00
2018-01-28T05:36:59.482Z,0.00
2018-01-28T05:37:59.446Z,0.00
2018-01-28T05:39:52.751Z,0.00
2018-01-28T05:40:52.686Z,0.00
2018-01-28T05:42:45.652Z,0.00
2018-01-28T05:43:45.597Z,0.00
2018-01-28T05:45:38.852Z,0.00
2018-01-28T05:46:38.692Z,0.00
2018-01-28T05:48:31.669Z,0.00
2018-01-28T05:49:31.603Z,0.00
2018-01-28T05:51:24.618Z,0.00
2018-01-28T05:52:24.553Z,0.00
2018-01-28T05:54:17.691Z,0.00
2018-01-28T05:55:17.643Z,0.00
2018-01-28T05:57:10.590Z,0.00
2018-01-28T05:58:10.537Z,0.00
2018-01-28T06:00:03.502Z,0.00
2018-01-28T06:01:03.447Z,0.00
2018-01-28T06:02:56.249Z,0.00
2018-01-28T06:03:56.211Z,0.00
2018-01-28T06:05:49.189Z,0.00
2018-01-28T06:06:48.978Z,0.00
2018-01-28T06:08:41.947Z,0.00
2018-01-28T06:09:41.908Z,0.00
2018-01-28T06:11:34.880Z,0.00
2018-01-28T06:12:34.814Z,0.00
2018-01-28T06:14:27.938Z,0.00
2018-01-28T06:15:27.893Z,0.00
2018-01-28T06:17:21.897Z,0.00
2018-01-28T06:18:21.822Z,0.00
2018-01-28T06:20:14.775Z,0.00
2018-01-28T06:21:14.714Z,0.00
2018-01-28T06:23:07.941Z,0.00
2018-01-28T06:24:07.801Z,0.00
2018-01-28T06:26:00.752Z,0.00
2018-01-28T06:27:00.694Z,0.00
2018-01-28T06:28:53.628Z,0.00
2018-01-28T06:29:53.588Z,0.00
2018-01-28T06:31:46.573Z,0.00
2018-01-28T06:32:46.514Z,0.00
2018-01-28T06:34:39.433Z,0.00
2018-01-28T06:35:39.399Z,0.00
2018-01-28T06:37:32.368Z,0.00
2018-01-28T06:38:32.305Z,0.00
2018-01-28T06:40:25.097Z,0.00
2018-01-28T06:41:25.069Z,0.00
2018-01-28T06:43:18.047Z,0.00
2018-01-28T06:44:17.963Z,0.00
2018-01-28T06:46:10.902Z,0.00
2018-01-28T06:47:10.863Z,0.00
2018-01-28T06:49:03.812Z,0.00
2018-01-28T06:50:03.875Z,0.00
2018-01-28T06:51:56.549Z,0.00
2018-01-28T06:52:56.513Z,0.00
2018-01-28T06:54:49.553Z,0.00
2018-01-28T06:55:49.474Z,0.00
2018-01-28T06:57:42.464Z,0.00
2018-01-28T06:58:42.427Z,0.00
2018-01-28T07:00:35.419Z,0.00
2018-01-28T07:01:35.412Z,0.00
2018-01-28T07:03:28.578Z,0.00
2018-01-28T07:04:28.470Z,0.00
2018-01-28T07:06:21.424Z,0.00
2018-01-28T07:07:21.377Z,0.00
2018-01-28T07:09:14.328Z,0.00
2018-01-28T07:10:14.268Z,0.00
2018-01-28T07:12:07.116Z,0.00
2018-01-28T07:13:07.052Z,0.00
2018-01-28T07:15:00.022Z,0.00
2018-01-28T07:15:59.954Z,0.00
2018-01-28T07:17:52.924Z,0.00
2018-01-28T07:18:52.879Z,0.00
2018-01-28T07:20:45.833Z,0.00
2018-01-28T07:21:45.782Z,0.00
2018-01-28T07:23:38.704Z,0.00
2018-01-28T07:24:38.667Z,0.00
2018-01-28T07:26:31.643Z,0.00
2018-01-28T07:27:31.556Z,0.00
2018-01-28T07:29:24.484Z,0.00
2018-01-28T07:30:24.451Z,0.00
2018-01-28T07:32:17.283Z,0.00
2018-01-28T07:33:17.224Z,0.00
2018-01-28T07:35:10.398Z,0.00
2018-01-28T07:36:10.303Z,0.00
2018-01-28T07:38:03.248Z,0.00
2018-01-28T07:39:03.189Z,0.00
2018-01-28T07:40:56.153Z,0.00
2018-01-28T07:41:56.089Z,0.00
2018-01-28T07:43:49.163Z,0.00
2018-01-28T07:44:49.002Z,0.00
2018-01-28T07:46:41.963Z,0.00
2018-01-28T07:47:41.906Z,0.00
2018-01-28T07:49:34.709Z,0.00
2018-01-28T07:50:34.664Z,0.00
2018-01-28T07:52:27.487Z,0.00
2018-01-28T07:53:27.445Z,0.00
2018-01-28T07:55:20.657Z,0.00
2018-01-28T07:56:20.523Z,0.00
2018-01-28T07:58:13.457Z,0.00
2018-01-28T07:59:13.409Z,0.00
2018-01-28T08:01:06.355Z,0.00
2018-01-28T08:02:06.175Z,0.00
2018-01-28T08:03:59.139Z,0.00
2018-01-28T08:04:59.068Z,0.00
2018-01-28T08:06:51.904Z,0.00
2018-01-28T08:07:51.853Z,0.00
2018-01-28T08:09:44.710Z,0.00
2018-01-28T08:10:44.623Z,0.00
2018-01-28T08:12:37.593Z,0.00
2018-01-28T08:13:37.535Z,0.00
2018-01-28T08:15:30.531Z,0.00
2018-01-28T08:16:30.443Z,0.00
2018-01-28T08:18:23.458Z,0.00
2018-01-28T08:19:23.424Z,5.63
2018-01-28T08:21:16.397Z,5.63
2018-01-28T08:22:16.342Z,5.63
2018-01-28T08:24:09.270Z,5.63
2018-01-28T08:25:09.235Z,5.63
2018-01-28T08:27:02.183Z,5.63
2018-01-28T08:28:02.140Z,5.63
2018-01-28T08:29:55.102Z,5.63
2018-01-28T08:30:54.900Z,5.63
2018-01-28T08:32:47.781Z,5.63
2018-01-28T08:33:47.684Z,5.63
2018-01-28T08:35:40.650Z,11.25
2018-01-28T08:36:40.601Z,11.25
2018-01-28T08:38:33.518Z,11.25
2018-01-28T08:39:33.483Z,11.25
2018-01-28T08:41:26.776Z,11.25
2018-01-28T08:42:26.733Z,11.25
2018-01-28T08:44:19.520Z,11.25
2018-01-28T08:45:19.480Z,11.25
2018-01-28T08:47:12.424Z,11.25
2018-01-28T08:48:12.379Z,11.25
2018-01-28T08:50:05.421Z,11.25
2018-01-28T08:51:05.274Z,11.25
2018-01-28T08:52:58.223Z,11.25
2018-01-28T08:53:58.174Z,11.25
2018-01-28T08:55:51.141Z,11.25
2018-01-28T08:56:51.064Z,11.25
2018-01-28T08:58:44.322Z,11.25
2018-01-28T08:59:44.164Z,11.25
2018-01-28T09:01:37.115Z,16.88
2018-01-28T09:02:37.059Z,16.88
2018-01-28T09:04:30.055Z,16.88
2018-01-28T09:05:29.995Z,16.88
2018-01-28T09:07:23.115Z,16.88
2018-01-28T09:08:23.081Z,16.88
2018-01-28T09:10:16.005Z,16.88
2018-01-28T09:11:15.965Z,16.88
2018-01-28T09:13:08.925Z,16.88
2018-01-28T09:14:08.864Z,16.88
2018-01-28T09:16:01.989Z,16.88
2018-01-28T09:17:01.944Z,16.88
2018-01-28T09:18:54.913Z,16.88
2018-01-28T09:19:54.875Z,16.88
2018-01-28T09:21:47.678Z,16.88
2018-01-28T09:22:47.634Z,16.88
2018-01-28T09:24:40.928Z,16.88
2018-01-28T09:25:40.765Z,16.88
2018-01-28T09:27:33.738Z,16.88
2018-01-28T09:28:33.653Z,16.88
2018-01-28T09:30:26.464Z,16.88
2018-01-28T09:31:26.417Z,16.88
2018-01-28T09:33:19.244Z,16.88
2018-01-28T09:34:19.186Z,16.88
2018-01-28T09:36:12.342Z,16.88
2018-01-28T09:37:12.299Z,16.88
2018-01-28T09:39:05.265Z,16.88
2018-01-28T09:40:05.199Z,16.88
2018-01-28T09:41:58.129Z,16.88
2018-01-28T09:42:58.094Z,16.88
2018-01-28T09:44:51.250Z,16.88
2018-01-28T09:45:51.180Z,11.25
2018-01-28T09:47:44.156Z,11.25
2018-01-28T09:48:44.086Z,11.25
2018-01-28T09:50:37.045Z,11.25
2018-01-28T09:51:37.008Z,11.25
2018-01-28T09:53:29.960Z,11.25
2018-01-28T09:54:29.863Z,16.88
2018-01-28T09:56:22.835Z,16.88
2018-01-28T09:57:22.772Z,16.88
2018-01-28T09:59:15.700Z,16.88
2018-01-28T10:00:15.670Z,11.25
2018-01-28T10:02:08.991Z,11.25
2018-01-28T10:03:08.821Z,16.88
2018-01-28T10:05:01.797Z,11.25
2018-01-28T10:06:01.739Z,16.88
2018-01-28T10:07:54.730Z,11.25
2018-01-28T10:08:54.666Z,11.25
2018-01-28T10:10:47.865Z,11.25
2018-01-28T10:11:47.774Z,11.25
2018-01-28T10:13:40.745Z,16.88
2018-01-28T10:14:40.745Z,11.25
2018-01-28T10:16:33.676Z,16.88
2018-01-28T10:17:33.620Z,16.88
2018-01-28T10:19:26.659Z,11.25
2018-01-28T10:20:26.545Z,16.88
2018-01-28T10:22:19.513Z,11.25
2018-01-28T10:23:19.524Z,11.25
2018-01-28T10:25:12.445Z,11.25
2018-01-28T10:26:12.394Z,11.25
2018-01-28T10:28:05.247Z,16.88
2018-01-28T10:29:05.185Z,16.88
2018-01-28T10:30:58.426Z,16.88
2018-01-28T10:31:58.399Z,16.88
2018-01-28T10:33:51.229Z,16.88
2018-01-28T10:34:51.177Z,16.88
2018-01-28T10:36:44.379Z,28.13
2018-01-28T10:37:44.306Z,28.13
2018-01-28T10:39:37.276Z,28.13
2018-01-28T10:40:37.231Z,16.88
2018-01-28T10:42:30.185Z,11.25
2018-01-28T10:43:30.149Z,16.88
2018-01-28T10:45:22.980Z,11.25
2018-01-28T10:46:22.917Z,11.25
2018-01-28T10:48:15.896Z,16.88
2018-01-28T10:49:15.848Z,16.88
2018-01-28T10:51:08.826Z,22.50
2018-01-28T10:52:08.751Z,22.50
2018-01-28T10:54:01.748Z,16.88
2018-01-28T10:55:01.676Z,16.88
2018-01-28T10:56:54.757Z,22.50
2018-01-28T10:57:54.666Z,22.50
2018-01-28T10:59:47.649Z,16.88
2018-01-28T11:00:47.590Z,16.88
2018-01-28T11:02:40.409Z,11.25
2018-01-28T11:03:40.355Z,11.25
2018-01-28T11:05:33.579Z,16.88
2018-01-28T11:06:33.436Z,16.88
2018-01-28T11:08:26.409Z,22.50
2018-01-28T11:09:26.344Z,22.50
2018-01-28T11:11:19.311Z,22.50
2018-01-28T11:12:19.251Z,22.50
2018-01-28T11:14:12.380Z,22.50
2018-01-28T11:15:12.374Z,28.13
2018-01-28T11:17:05.341Z,22.50
2018-01-28T11:18:05.253Z,22.50
2018-01-28T11:19:58.243Z,16.88
2018-01-28T11:20:58.210Z,16.88
2018-01-28T11:22:51.123Z,22.50
2018-01-28T11:23:51.057Z,22.50
2018-01-28T11:25:44.022Z,22.50
2018-01-28T11:26:43.968Z,22.50
2018-01-28T11:28:36.930Z,16.88
2018-01-28T11:29:36.872Z,16.88
2018-01-28T11:31:29.950Z,16.88
2018-01-28T11:32:29.895Z,16.88
2018-01-28T11:34:22.882Z,22.50
2018-01-28T11:35:22.805Z,22.50
2018-01-28T11:37:15.765Z,22.50
2018-01-28T11:38:15.723Z,22.50
2018-01-28T11:40:08.653Z,16.88
2018-01-28T11:41:08.631Z,22.50
2018-01-28T11:43:01.453Z,22.50
2018-01-28T11:44:01.386Z,16.88
2018-01-28T11:45:54.344Z,22.50
2018-01-28T11:46:54.313Z,16.88
2018-01-28T11:48:47.259Z,22.50
2018-01-28T11:49:47.207Z,22.50
2018-01-28T11:51:40.300Z,33.75
2018-01-28T11:52:40.236Z,33.75
2018-01-28T11:54:33.209Z,39.38
2018-01-28T11:55:33.151Z,45.00
2018-01-28T11:57:26.076Z,39.38
2018-01-28T11:58:26.154Z,33.75
2018-01-28T12:00:18.889Z,28.13
2018-01-28T12:01:18.812Z,33.75
2018-01-28T12:03:12.011Z,33.75
2018-01-28T12:04:11.862Z,39.38
2018-01-28T12:06:04.807Z,45.00
2018-01-28T12:07:04.779Z,45.00
2018-01-28T12:08:57.603Z,56.25
2018-01-28T12:09:57.532Z,45.00
2018-01-28T12:11:50.351Z,50.63
2018-01-28T12:12:50.330Z,50.63
2018-01-28T12:14:43.148Z,56.25
2018-01-28T12:15:43.089Z,50.63
2018-01-28T12:17:36.061Z,67.50
2018-01-28T12:18:36.021Z,61.88
2018-01-28T12:20:29.010Z,67.50
2018-01-28T12:21:28.920Z,67.50
2018-01-28T12:23:21.738Z,84.38
2018-01-28T12:24:21.699Z,61.88
2018-01-28T12:26:14.887Z,39.38
2018-01-28T12:27:14.797Z,33.75
2018-01-28T12:29:07.766Z,39.38
2018-01-28T12:30:07.709Z,28.13
2018-01-28T12:32:00.698Z,22.50
2018-01-28T12:33:00.650Z,16.88
2018-01-28T12:34:53.504Z,16.88
2018-01-28T12:35:53.447Z,16.88
2018-01-28T12:37:46.460Z,16.88
2018-01-28T12:38:46.377Z,16.88
2018-01-28T12:40:39.358Z,16.88
2018-01-28T12:41:39.303Z,16.88
2018-01-28T12:43:32.288Z,16.88
2018-01-28T12:44:32.232Z,16.88
2018-01-28T12:46:25.213Z,28.13
2018-01-28T12:47:25.059Z,28.13
2018-01-28T12:49:18.049Z,28.13
2018-01-28T12:50:17.971Z,28.13
2018-01-28T12:52:10.764Z,28.13
2018-01-28T12:53:10.732Z,28.13
2018-01-28T12:55:03.746Z,28.13
2018-01-28T12:56:03.688Z,28.13
2018-01-28T12:57:56.505Z,33.75
2018-01-28T12:58:56.453Z,33.75
2018-01-28T13:00:49.408Z,50.63
2018-01-28T13:01:49.357Z,45.00
2018-01-28T13:03:42.335Z,50.63
2018-01-28T13:04:42.284Z,56.25
2018-01-28T13:06:35.555Z,73.13
2018-01-28T13:07:35.549Z,73.13
2018-01-28T13:09:28.344Z,78.75
2018-01-28T13:10:28.291Z,78.75
2018-01-28T13:12:21.145Z,67.50
2018-01-28T13:13:21.060Z,50.63
2018-01-28T13:15:13.997Z,33.75
2018-01-28T13:16:13.972Z,33.75
2018-01-28T13:18:06.799Z,33.75
2018-01-28T13:19:06.754Z,28.13
2018-01-28T13:20:59.687Z,28.13
2018-01-28T13:21:59.648Z,28.13
2018-01-28T13:23:52.616Z,28.13
2018-01-28T13:24:52.559Z,28.13
2018-01-28T13:26:45.507Z,33.75
2018-01-28T13:27:45.469Z,33.75
2018-01-28T13:29:38.296Z,28.13
2018-01-28T13:30:38.229Z,28.13
2018-01-28T13:32:31.152Z,28.13
2018-01-28T13:33:30.998Z,28.13
2018-01-28T13:35:23.981Z,22.50
2018-01-28T13:36:23.919Z,28.13
2018-01-28T13:38:16.873Z,28.13
2018-01-28T13:39:16.846Z,22.50
2018-01-28T13:41:10.120Z,28.13
2018-01-28T13:42:09.955Z,28.13
2018-01-28T13:44:02.929Z,28.13
2018-01-28T13:45:02.917Z,22.50
2018-01-28T13:46:55.879Z,33.75
2018-01-28T13:47:55.811Z,39.38
2018-01-28T13:49:48.614Z,39.38
2018-01-28T13:50:48.585Z,39.38
2018-01-28T13:52:41.576Z,39.38
2018-01-28T13:53:41.360Z,39.38
2018-01-28T13:55:34.338Z,39.38
2018-01-28T13:56:34.335Z,45.00
2018-01-28T13:58:27.204Z,39.38
2018-01-28T13:59:27.207Z,39.38
2018-01-28T14:01:20.395Z,45.00
2018-01-28T14:02:20.340Z,45.00
2018-01-28T14:04:13.248Z,50.63
2018-01-28T14:05:13.210Z,39.38
2018-01-28T14:07:06.178Z,33.75
2018-01-28T14:08:06.126Z,28.13
2018-01-28T14:09:58.922Z,28.13
2018-01-28T14:10:58.912Z,28.13
2018-01-28T14:12:51.748Z,28.13
2018-01-28T14:13:51.684Z,28.13
2018-01-28T14:15:44.623Z,39.38
2018-01-28T14:16:44.596Z,45.00
2018-01-28T14:18:37.562Z,45.00
2018-01-28T14:19:37.590Z,45.00
2018-01-28T14:21:30.633Z,45.00
2018-01-28T14:22:30.602Z,45.00
2018-01-28T14:24:23.574Z,45.00
2018-01-28T14:25:23.525Z,45.00
2018-01-28T14:27:16.517Z,39.38
2018-01-28T14:28:16.433Z,61.88
2018-01-28T14:30:09.260Z,67.50
2018-01-28T14:31:09.215Z,67.50
2018-01-28T14:33:02.191Z,67.50
2018-01-28T14:34:01.987Z,67.50
2018-01-28T14:35:54.984Z,67.50
2018-01-28T14:36:54.896Z,78.75
2018-01-28T14:38:47.863Z,67.50
2018-01-28T14:39:47.806Z,67.50
2018-01-28T14:41:40.960Z,67.50
2018-01-28T14:42:40.919Z,67.50
2018-01-28T14:44:33.867Z,67.50
2018-01-28T14:45:33.816Z,78.75
2018-01-28T14:47:26.750Z,61.88
2018-01-28T14:48:26.729Z,61.88
2018-01-28T14:50:19.893Z,67.50
2018-01-28T14:51:19.828Z,61.88
2018-01-28T14:53:12.756Z,61.88
2018-01-28T14:54:12.715Z,73.13
2018-01-28T14:56:05.673Z,61.88
2018-01-28T14:57:05.617Z,61.88
2018-01-28T14:58:58.709Z,50.63
2018-01-28T14:59:58.690Z,39.38
2018-01-28T15:01:51.522Z,39.38
2018-01-28T15:02:51.454Z,33.75
2018-01-28T15:04:44.424Z,28.13
2018-01-28T15:05:44.371Z,22.50
2018-01-28T15:07:37.531Z,22.50
2018-01-28T15:08:37.456Z,22.50
2018-01-28T15:10:30.312Z,22.50
2018-01-28T15:11:30.234Z,22.50
2018-01-28T15:13:23.187Z,16.88
2018-01-28T15:14:23.157Z,16.88
2018-01-28T15:16:16.145Z,16.88
2018-01-28T15:17:16.083Z,16.88
2018-01-28T15:19:08.893Z,16.88
2018-01-28T15:20:08.832Z,16.88
2018-01-28T15:22:01.666Z,11.25
2018-01-28T15:23:01.617Z,11.25
2018-01-28T15:24:54.643Z,11.25
2018-01-28T15:25:54.557Z,11.25
2018-01-28T15:27:47.523Z,11.25
2018-01-28T15:28:47.494Z,5.63
2018-01-28T15:30:40.537Z,5.63
2018-01-28T15:31:40.530Z,5.63
2018-01-28T15:33:33.466Z,5.63
2018-01-28T15:34:33.454Z,5.63
2018-01-28T15:36:26.390Z,5.63
2018-01-28T15:37:26.405Z,5.63
2018-01-28T15:39:19.168Z,5.63
2018-01-28T15:40:19.131Z,5.63
2018-01-28T15:42:12.048Z,0.00
2018-01-28T15:43:11.942Z,0.00
2018-01-28T15:45:04.924Z,0.00
2018-01-28T15:46:04.870Z,0.00
2018-01-28T15:47:57.835Z,0.00
2018-01-28T15:48:57.791Z,0.00
2018-01-28T15:50:50.945Z,0.00
2018-01-28T15:51:50.877Z,0.00
2018-01-28T15:53:43.798Z,0.00
2018-01-28T15:54:43.762Z,0.00
2018-01-28T15:56:36.678Z,0.00
2018-01-28T15:57:36.691Z,0.00
2018-01-28T15:59:29.558Z,0.00
2018-01-28T16:00:29.477Z,0.00
2018-01-28T16:02:22.295Z,0.00
2018-01-28T16:03:22.221Z,0.00
2018-01-28T16:05:15.188Z,0.00
2018-01-28T16:06:15.120Z,0.00
2018-01-28T16:08:08.044Z,0.00
2018-01-28T16:09:08.031Z,0.00
2018-01-28T16:11:00.853Z,0.00
2018-01-28T16:12:00.827Z,0.00
2018-01-28T16:13:53.604Z,0.00
2018-01-28T16:14:53.587Z,0.00
2018-01-28T16:16:46.570Z,0.00
2018-01-28T16:17:46.516Z,0.00
2018-01-28T16:19:39.483Z,0.00
2018-01-28T16:20:39.417Z,0.00
2018-01-28T16:22:32.364Z,0.00
2018-01-28T16:23:32.328Z,0.00
2018-01-28T16:25:25.528Z,0.00
2018-01-28T16:26:25.468Z,0.00
2018-01-28T16:28:18.481Z,0.00
2018-01-28T16:29:18.435Z,0.00
2018-01-28T16:31:11.588Z,0.00
2018-01-28T16:32:11.489Z,0.00
2018-01-28T16:34:04.464Z,0.00
2018-01-28T16:35:04.399Z,0.00
2018-01-28T16:36:57.401Z,0.00
2018-01-28T16:37:57.338Z,0.00
2018-01-28T16:39:50.745Z,0.00
2018-01-28T16:40:50.615Z,0.00
2018-01-28T16:42:43.603Z,0.00
2018-01-28T16:43:43.577Z,0.00
2018-01-28T16:45:36.505Z,0.00
2018-01-28T16:46:36.437Z,0.00
2018-01-28T16:48:29.396Z,0.00
2018-01-28T16:49:29.347Z,0.00
2018-01-28T16:51:22.346Z,0.00
2018-01-28T16:52:22.270Z,0.00
2018-01-28T16:54:15.217Z,0.00
2018-01-28T16:55:15.149Z,0.00
2018-01-28T16:57:07.993Z,0.00
2018-01-28T16:58:07.947Z,0.00
2018-01-28T17:00:00.866Z,0.00
2018-01-28T17:01:00.840Z,0.00
2018-01-28T17:02:53.826Z,0.00
2018-01-28T17:03:53.751Z,0.00
2018-01-28T17:05:46.762Z,0.00
2018-01-28T17:06:46.734Z,0.00
2018-01-28T17:08:39.697Z,0.00
2018-01-28T17:09:39.645Z,0.00
2018-01-28T17:11:32.586Z,0.00
2018-01-28T17:12:32.559Z,0.00
2018-01-28T17:14:25.514Z,0.00
2018-01-28T17:15:25.470Z,0.00
2018-01-28T17:17:18.298Z,0.00
2018-01-28T17:18:18.222Z,0.00
2018-01-28T17:20:11.086Z,0.00
2018-01-28T17:21:11.002Z,0.00
2018-01-28T17:23:03.953Z,0.00
2018-01-28T17:24:03.973Z,0.00
2018-01-28T17:25:56.898Z,0.00
2018-01-28T17:26:56.818Z,0.00
2018-01-28T17:28:50.043Z,0.00
2018-01-28T17:29:49.979Z,0.00
2018-01-28T17:31:42.941Z,0.00
2018-01-28T17:32:42.870Z,0.00
2018-01-28T17:34:35.871Z,0.00
2018-01-28T17:35:35.788Z,0.00
2018-01-28T17:37:28.604Z,0.00
2018-01-28T17:38:28.573Z,0.00
2018-01-28T17:40:21.594Z,0.00
2018-01-28T17:41:21.508Z,0.00
2018-01-28T17:43:14.484Z,0.00
2018-01-28T17:44:14.480Z,0.00
2018-01-28T17:46:07.364Z,0.00
2018-01-28T17:47:07.293Z,0.00
2018-01-28T17:49:00.108Z,0.00
2018-01-28T17:50:00.082Z,0.00
2018-01-28T17:51:53.015Z,0.00
2018-01-28T17:52:52.867Z,0.00
2018-01-28T17:54:45.820Z,0.00
2018-01-28T17:55:45.768Z,0.00
2018-01-28T17:57:38.766Z,0.00
2018-01-28T17:58:38.690Z,0.00
2018-01-28T18:00:31.543Z,0.00
2018-01-28T18:01:31.494Z,0.00
2018-01-28T18:03:24.482Z,0.00
2018-01-28T18:04:24.409Z,0.00
2018-01-28T18:06:17.467Z,0.00
2018-01-28T18:07:17.351Z,0.00
2018-01-28T18:09:10.298Z,0.00
2018-01-28T18:10:10.250Z,0.00
2018-01-28T18:12:03.310Z,0.00
2018-01-28T18:13:03.115Z,0.00
2018-01-28T18:14:55.908Z,0.00
2018-01-28T18:15:55.883Z,0.00
2018-01-28T18:17:48.879Z,0.00
2018-01-28T18:18:48.782Z,0.00
2018-01-28T18:20:41.757Z,0.00
2018-01-28T18:21:41.709Z,0.00
2018-01-28T18:23:34.567Z,0.00
2018-01-28T18:24:34.469Z,0.00
2018-01-28T18:26:27.458Z,0.00
2018-01-28T18:27:27.403Z,0.00
2018-01-28T18:29:20.419Z,0.00
2018-01-28T18:30:20.338Z,0.00
2018-01-28T18:32:13.309Z,0.00
2018-01-28T18:33:13.238Z,0.00
2018-01-28T18:35:06.079Z,0.00
2018-01-28T18:36:06.038Z,0.00
2018-01-28T18:37:58.979Z,0.00
2018-01-28T18:38:58.950Z,0.00
2018-01-28T18:40:51.882Z,0.00
2018-01-28T18:41:51.853Z,0.00
2018-01-28T18:43:44.675Z,0.00
2018-01-28T18:44:44.643Z,0.00
2018-01-28T18:46:37.449Z,0.00
2018-01-28T18:47:37.425Z,0.00
2018-01-28T18:49:30.365Z,0.00
2018-01-28T18:50:30.319Z,0.00
2018-01-28T18:52:23.120Z,0.00
2018-01-28T18:53:23.105Z,0.00
2018-01-28T18:55:16.065Z,0.00
2018-01-28T18:56:16.015Z,0.00